| time (UTC) | temp F | wind direction | speed knots | gust knots | rain 1hr in | rain 24hr in | rain mn in | humidity % | barometer mb |
| 20260502211551 | 69 | 69 | 0.0 | 0.9 | 0.02 | 0.02 | 0.02 | 30 | 1012.7 |
| 20260502210031 | 70 | 69 | 0.0 | 0.0 | 0.02 | 0.02 | 0.02 | 28 | 1013.1 |
| 20260502204535 | 70 | 69 | 0.0 | 0.0 | 0.00 | 0.00 | 0.00 | 28 | 1013.1 |
| 20260502203009 | 70 | 69 | 0.0 | 0.0 | 0.00 | 0.00 | 0.00 | 28 | 1013.5 |
| 20260502201510 | 68 | 69 | 0.0 | 0.9 | 0.00 | 0.00 | 0.00 | 30 | 1014.0 |
| 20260502200107 | 69 | 69 | 0.0 | 0.0 | 0.00 | 0.00 | 0.00 | 30 | 1014.2 |
| 20260502194603 | 67 | 68 | 0.0 | 2.6 | 0.00 | 0.00 | 0.00 | 31 | 1014.4 |
| 20260502193025 | 68 | 68 | 0.0 | 0.9 | 0.00 | 0.00 | 0.00 | 30 | 1015.0 |
| 20260502191523 | 66 | 68 | 0.0 | 0.9 | 0.00 | 0.00 | 0.00 | 31 | 1015.2 |
| 20260502190100 | 65 | 69 | 0.0 | 0.9 | 0.00 | 0.00 | 0.00 | 30 | 1015.6 |
| 20260502184559 | 64 | 69 | 0.0 | 1.7 | 0.00 | 0.00 | 0.00 | 32 | 1015.8 |
| 20260502183044 | 63 | 69 | 0.0 | 0.9 | 0.00 | 0.00 | 0.00 | 32 | 1016.2 |
| 20260502181534 | 63 | 69 | 0.0 | 0.0 | 0.00 | 0.00 | 0.00 | 32 | 1016.3 |
| 20260502163007 | 58 | 69 | 0.0 | 0.9 | 0.00 | 0.00 | 0.00 | 36 | 1018.2 |
| 20260502161501 | 57 | 69 | 0.0 | 0.0 | 0.00 | 0.00 | 0.00 | 38 | 1018.4 |
| 20260502151516 | 55 | 69 | 0.0 | 0.0 | 0.00 | 0.00 | 0.00 | 42 | 1019.0 |
| 20260502150130 | 53 | 69 | 0.0 | 0.0 | 0.00 | 0.00 | 0.00 | 42 | 1019.3 |
| 20260502123049 | 41 | 69 | 0.0 | 0.0 | 0.00 | 0.00 | 0.00 | 76 | 1020.2 |
| 20260502121557 | 38 | 69 | 0.0 | 0.0 | 0.00 | 0.00 | 0.00 | 82 | 1020.2 |
| 20260502114526 | 35 | 69 | 0.0 | 0.0 | 0.00 | 0.00 | 0.00 | 85 | 1020.1 |
| 20260502113008 | 33 | 69 | 0.0 | 0.0 | 0.00 | 0.00 | 0.00 | 87 | 1020.1 |
| 20260502111507 | 33 | 69 | 0.0 | 0.0 | 0.00 | 0.00 | 0.00 | 86 | 1020.0 |
| 20260502110050 | 32 | 69 | 0.0 | 0.0 | 0.00 | 0.00 | 0.00 | 85 | 1020.0 |
| 20260502104548 | 32 | 69 | 0.0 | 0.0 | 0.00 | 0.00 | 0.00 | 83 | 1020.0 |
| 20260502103056 | 33 | 69 | 0.0 | 0.0 | 0.00 | 0.00 | 0.00 | 83 | 1020.0 |
| 20260502101545 | 33 | 69 | 0.0 | 0.0 | 0.00 | 0.00 | 0.00 | 83 | 1020.0 |
| 20260502070050 | 36 | 69 | 0.0 | 0.0 | 0.00 | 0.00 | 0.00 | 76 | 1019.9 |
| 20260502064547 | 36 | 69 | 0.0 | 0.0 | 0.00 | 0.00 | 0.00 | 76 | 1020.0 |
| 20260502063054 | 36 | 69 | 0.0 | 0.0 | 0.00 | 0.00 | 0.00 | 74 | 1020.1 |
| 20260502061543 | 37 | 69 | 0.0 | 0.0 | 0.00 | 0.00 | 0.00 | 73 | 1020.1 |
| 20260502060024 | 37 | 69 | 0.0 | 0.0 | 0.00 | 0.00 | 0.00 | 72 | 1020.0 |
| 20260502054524 | 38 | 69 | 0.0 | 0.0 | 0.00 | 0.00 | 0.00 | 71 | 1020.0 |
| 20260502053003 | 38 | 69 | 0.0 | 0.0 | 0.00 | 0.00 | 0.00 | 70 | 1020.0 |
| 20260502051501 | 38 | 69 | 0.0 | 0.0 | 0.00 | 0.00 | 0.00 | 70 | 1020.1 |
| 20260502050048 | 38 | 69 | 0.0 | 0.0 | 0.00 | 0.00 | 0.00 | 71 | 1020.1 |
| 20260502044545 | 39 | 69 | 0.0 | 0.0 | 0.00 | 0.00 | 0.00 | 70 | 1020.1 |
| 20260502043055 | 39 | 69 | 0.0 | 0.0 | 0.00 | 0.00 | 0.00 | 68 | 1020.1 |
| 20260502041544 | 40 | 69 | 0.0 | 0.0 | 0.00 | 0.00 | 0.00 | 67 | 1020.0 |
| 20260502040049 | 41 | 69 | 0.0 | 0.0 | 0.00 | 0.00 | 0.00 | 66 | 1020.1 |
| 20260502034543 | 41 | 69 | 0.0 | 0.0 | 0.00 | 0.00 | 0.00 | 64 | 1020.1 |
| 20260502033044 | 42 | 69 | 0.0 | 0.0 | 0.00 | 0.00 | 0.00 | 61 | 1020.1 |
| 20260502031542 | 43 | 69 | 0.0 | 0.0 | 0.00 | 0.00 | 0.00 | 58 | 1020.1 |
| 20260502030024 | 43 | 69 | 0.0 | 0.0 | 0.00 | 0.00 | 0.00 | 55 | 1020.1 |
| 20260502024523 | 44 | 69 | 0.0 | 0.0 | 0.00 | 0.00 | 0.00 | 55 | 1020.1 |
| 20260502023005 | 45 | 69 | 0.0 | 0.0 | 0.00 | 0.00 | 0.00 | 55 | 1020.1 |
| 20260502021504 | 46 | 69 | 0.0 | 0.0 | 0.00 | 0.00 | 0.00 | 49 | 1020.0 |
| 20260502020104 | 47 | 69 | 0.0 | 0.0 | 0.00 | 0.00 | 0.00 | 48 | 1019.8 |
| 20260502014546 | 48 | 69 | 0.0 | 0.0 | 0.00 | 0.00 | 0.00 | 44 | 1019.7 |
| 20260502013053 | 49 | 69 | 0.0 | 0.0 | 0.00 | 0.00 | 0.00 | 39 | 1019.5 |
| 20260502011528 | 50 | 69 | 0.0 | 0.0 | 0.00 | 0.00 | 0.00 | 36 | 1019.5 |
| 20260502010029 | 51 | 69 | 0.0 | 0.0 | 0.00 | 0.00 | 0.00 | 34 | 1019.5 |
| 20260502004516 | 52 | 69 | 0.0 | 0.0 | 0.00 | 0.00 | 0.00 | 33 | 1019.4 |
| 20260502003015 | 52 | 69 | 0.0 | 0.0 | 0.00 | 0.00 | 0.00 | 34 | 1019.5 |
| 20260502001514 | 52 | 69 | 0.0 | 0.0 | 0.00 | 0.00 | 0.00 | 35 | 1019.4 |
| 20260502000013 | 52 | 69 | 0.0 | 0.9 | 0.00 | 0.00 | 0.00 | 33 | 1019.4 |
| 20260501234513 | 53 | 69 | 0.0 | 0.0 | 0.00 | 0.00 | 0.00 | 34 | 1019.5 |
| 20260501233012 | 54 | 69 | 0.0 | 0.9 | 0.00 | 0.00 | 0.00 | 31 | 1019.5 |
| 20260501231512 | 54 | 69 | 0.0 | 0.9 | 0.00 | 0.00 | 0.00 | 32 | 1019.5 |
| 20260501230011 | 54 | 69 | 0.0 | 0.9 | 0.00 | 0.00 | 0.00 | 32 | 1019.5 |
| 20260501224553 | 53 | 69 | 0.0 | 0.0 | 0.00 | 0.00 | 0.00 | 32 | 1019.5 |
| 20260501223102 | 53 | 69 | 0.0 | 0.0 | 0.00 | 0.00 | 0.00 | 32 | 1019.5 |
| 20260501221535 | 52 | 69 | 0.0 | 0.9 | 0.00 | 0.00 | 0.00 | 33 | 1019.6 |
| 20260501220032 | 52 | 68 | 0.0 | 0.0 | 0.00 | 0.00 | 0.00 | 34 | 1019.7 |
| 20260501214526 | 52 | 68 | 0.0 | 0.9 | 0.00 | 0.00 | 0.00 | 34 | 1019.8 |
| 20260501213011 | 52 | 68 | 0.0 | 0.0 | 0.00 | 0.00 | 0.00 | 34 | 1019.7 |